createdAt,value
2023-03-13T00:00:06.927Z,20.92
2023-03-13T00:02:35.129Z,18.17
2023-03-13T00:05:03.404Z,25.05
2023-03-13T00:07:31.520Z,16.67
2023-03-13T00:09:59.877Z,11.73
2023-03-13T00:12:28.063Z,24.27
2023-03-13T00:14:56.376Z,17.45
2023-03-13T00:17:24.704Z,27.90
2023-03-13T00:19:53.031Z,21.05
2023-03-13T00:22:21.114Z,28.15
2023-03-13T00:24:49.275Z,35.40
2023-03-13T00:27:17.626Z,29.35
2023-03-13T00:29:45.829Z,18.67
2023-03-13T00:32:14.147Z,21.85
2023-03-13T00:34:42.463Z,16.35
2023-03-13T00:37:10.793Z,20.05
2023-03-13T00:39:38.888Z,133.95
2023-03-13T00:42:07.289Z,98.97
2023-03-13T00:44:35.583Z,28.17
2023-03-13T00:47:03.998Z,25.25
2023-03-13T00:49:32.927Z,40.35
2023-03-13T00:52:01.187Z,40.97
2023-03-13T00:54:29.432Z,40.90
2023-03-13T00:56:57.721Z,30.90
2023-03-13T00:59:26.062Z,38.95
2023-03-13T01:01:54.334Z,41.03
2023-03-13T01:04:22.851Z,40.65
2023-03-13T01:06:51.618Z,32.65
2023-03-13T01:09:19.903Z,34.00
2023-03-13T01:11:48.061Z,34.15
2023-03-13T01:14:19.364Z,45.35
2023-03-13T01:16:48.096Z,21.13
2023-03-13T01:19:17.964Z,20.63
2023-03-13T01:21:46.969Z,28.05
2023-03-13T01:24:15.363Z,35.97
2023-03-13T01:26:44.792Z,27.70
2023-03-13T01:29:13.229Z,40.85
2023-03-13T01:31:41.747Z,30.17
2023-03-13T01:34:12.358Z,29.77
2023-03-13T01:36:40.609Z,26.88
2023-03-13T01:39:08.914Z,37.75
2023-03-13T01:41:38.773Z,29.70
2023-03-13T01:44:07.191Z,18.55
2023-03-13T01:46:38.948Z,20.50
2023-03-13T01:49:32.254Z,19.35
2023-03-13T01:52:25.197Z,30.20
2023-03-13T01:55:12.969Z,32.13
2023-03-13T01:57:48.320Z,24.52
2023-03-13T02:00:20.765Z,30.27
2023-03-13T02:02:53.189Z,18.42
2023-03-13T02:05:25.009Z,79.78
2023-03-13T02:08:17.581Z,87.05
2023-03-13T02:11:19.422Z,73.45
2023-03-13T02:13:50.983Z,186.80
2023-03-13T02:16:20.744Z,129.00
2023-03-13T02:18:51.199Z,56.17
2023-03-13T02:21:42.688Z,27.90
2023-03-13T02:24:35.740Z,35.85
2023-03-13T02:27:04.739Z,29.70
2023-03-13T02:29:34.937Z,22.98
2023-03-13T02:32:03.377Z,32.47
2023-03-13T02:34:37.166Z,56.88
2023-03-13T02:37:07.889Z,167.20
2023-03-13T02:39:37.849Z,261.60
2023-03-13T02:42:06.377Z,271.23
2023-03-13T02:44:41.854Z,249.13
2023-03-13T02:47:10.727Z,119.88
2023-03-13T02:49:39.075Z,41.55
2023-03-13T02:52:21.985Z,62.65
2023-03-13T02:54:53.628Z,158.55
2023-03-13T02:57:23.147Z,184.32
2023-03-13T02:59:51.359Z,99.80
2023-03-13T03:02:19.730Z,47.60
2023-03-13T03:04:48.079Z,27.88
2023-03-13T03:07:16.546Z,21.77
2023-03-13T03:09:45.496Z,24.65
2023-03-13T03:12:19.003Z,20.50
2023-03-13T03:14:47.486Z,26.17
2023-03-13T03:17:16.501Z,22.25
2023-03-13T03:19:44.908Z,20.60
2023-03-13T03:22:13.080Z,19.50
2023-03-13T03:24:41.288Z,21.98
2023-03-13T03:27:09.637Z,25.40
2023-03-13T03:29:43.969Z,23.00
2023-03-13T03:32:12.383Z,19.70
2023-03-13T03:34:40.634Z,22.52
2023-03-13T03:37:09.275Z,28.52
2023-03-13T03:39:37.602Z,27.08
2023-03-13T03:42:07.587Z,28.92
2023-03-13T03:44:36.383Z,21.13
2023-03-13T03:47:05.731Z,17.27
2023-03-13T03:49:38.352Z,19.90
2023-03-13T03:52:07.517Z,21.85
2023-03-13T03:54:39.789Z,19.63
2023-03-13T03:57:08.225Z,25.13
2023-03-13T03:59:38.098Z,17.10
2023-03-13T04:04:38.491Z,30.50
2023-03-13T04:07:26.949Z,18.77
2023-03-13T04:09:55.133Z,23.95
2023-03-13T04:12:29.871Z,24.92
2023-03-13T04:14:58.617Z,29.15
2023-03-13T04:17:26.889Z,33.28
2023-03-13T04:19:55.326Z,16.60
2023-03-13T04:22:23.678Z,12.80
2023-03-13T04:24:56.607Z,36.88
2023-03-13T04:27:24.861Z,59.45
2023-03-13T04:29:54.047Z,22.30
2023-03-13T04:32:37.685Z,50.67
2023-03-13T04:35:29.151Z,25.60
2023-03-13T04:38:00.275Z,55.13
2023-03-13T04:40:51.140Z,72.65
2023-03-13T04:43:39.638Z,33.25
2023-03-13T04:46:25.967Z,13.43
2023-03-13T04:49:08.654Z,23.73
2023-03-13T04:52:03.111Z,18.63
2023-03-13T04:54:52.088Z,21.98
2023-03-13T04:57:38.348Z,27.20
2023-03-13T05:00:26.707Z,26.98
2023-03-13T05:03:25.054Z,24.42
2023-03-13T05:06:12.270Z,34.88
2023-03-13T05:08:54.652Z,24.05
2023-03-13T05:11:30.925Z,34.55
2023-03-13T05:14:19.322Z,28.25
2023-03-13T05:16:57.983Z,36.85
2023-03-13T05:19:44.460Z,31.10
2023-03-13T05:22:35.860Z,27.33
2023-03-13T05:25:30.843Z,24.70
2023-03-13T05:28:15.730Z,24.48
2023-03-13T05:30:54.498Z,23.20
2023-03-13T05:33:42.536Z,25.00
2023-03-13T05:36:22.045Z,26.38
2023-03-13T05:39:04.359Z,22.05
2023-03-13T05:41:55.470Z,20.17
2023-03-13T05:44:26.417Z,20.13
2023-03-13T05:47:04.205Z,29.60
2023-03-13T05:50:11.218Z,34.40
2023-03-13T05:52:58.084Z,20.70
2023-03-13T05:55:43.362Z,26.77
2023-03-13T05:58:23.071Z,17.15
2023-03-13T06:01:13.766Z,18.13
2023-03-13T06:03:51.301Z,15.65
2023-03-13T06:06:20.879Z,15.45
2023-03-13T06:08:55.788Z,17.17
2023-03-13T06:11:27.932Z,17.08
2023-03-13T06:13:56.870Z,24.15
2023-03-13T06:16:39.965Z,24.17
2023-03-13T06:19:20.745Z,28.25
2023-03-13T06:21:49.055Z,25.35
2023-03-13T06:24:17.227Z,25.60
2023-03-13T06:26:45.616Z,23.02
2023-03-13T06:29:13.773Z,22.95
2023-03-13T06:31:42.307Z,21.00
2023-03-13T06:34:14.416Z,20.55
2023-03-13T06:39:11.838Z,27.65
2023-03-13T06:41:40.152Z,18.40
2023-03-13T06:44:08.743Z,18.70
2023-03-13T06:46:36.876Z,19.67
2023-03-13T06:49:05.347Z,21.90
2023-03-13T06:51:34.037Z,26.98
2023-03-13T06:54:05.058Z,23.00
2023-03-13T06:56:33.321Z,15.95
2023-03-13T06:59:01.812Z,17.70
2023-03-13T07:01:30.346Z,18.15
2023-03-13T07:03:58.806Z,19.88
2023-03-13T07:06:27.284Z,30.27
2023-03-13T07:08:55.580Z,26.45
2023-03-13T07:11:23.798Z,21.38
2023-03-13T07:14:00.519Z,25.08
2023-03-13T07:16:38.258Z,27.77
2023-03-13T07:19:06.918Z,30.13
2023-03-13T07:21:35.294Z,32.58
2023-03-13T07:24:03.927Z,25.75
2023-03-13T07:26:32.347Z,21.40
2023-03-13T07:29:02.121Z,32.72
2023-03-13T07:31:30.332Z,37.83
2023-03-13T07:33:58.858Z,23.55
2023-03-13T07:36:27.338Z,37.22
2023-03-13T07:38:55.703Z,25.88
2023-03-13T07:41:24.308Z,30.75
2023-03-13T07:43:52.663Z,44.15
2023-03-13T07:46:21.357Z,32.63
2023-03-13T07:48:50.066Z,28.90
2023-03-13T07:51:33.535Z,27.85
2023-03-13T07:54:09.169Z,38.33
2023-03-13T07:56:37.343Z,46.42
2023-03-13T07:59:05.734Z,39.47
2023-03-13T08:01:34.096Z,26.10
2023-03-13T08:04:02.673Z,28.92
2023-03-13T08:06:34.251Z,31.52
2023-03-13T08:09:03.416Z,26.00
2023-03-13T08:11:31.731Z,37.90
2023-03-13T08:14:00.361Z,43.17
2023-03-13T08:16:31.005Z,28.17
2023-03-13T08:19:00.716Z,33.40
2023-03-13T08:21:31.093Z,18.83
2023-03-13T08:24:02.151Z,32.07
2023-03-13T08:26:32.333Z,22.13
2023-03-13T08:29:04.002Z,34.22
2023-03-13T08:31:43.216Z,21.75
2023-03-13T08:34:13.652Z,27.73
2023-03-13T08:36:42.539Z,17.88
2023-03-13T08:39:18.863Z,22.17
2023-03-13T08:41:47.603Z,25.77
2023-03-13T08:44:18.668Z,29.70
2023-03-13T08:46:47.578Z,26.23
2023-03-13T08:49:15.866Z,19.10
2023-03-13T08:51:44.484Z,19.17
2023-03-13T08:54:12.879Z,32.10
2023-03-13T08:56:41.067Z,14.73
2023-03-13T08:59:09.200Z,15.63
2023-03-13T09:01:38.182Z,14.07
2023-03-13T09:04:06.937Z,14.85
2023-03-13T09:06:37.132Z,11.75
2023-03-13T09:09:06.811Z,23.00
2023-03-13T09:11:36.455Z,19.92
2023-03-13T09:14:04.789Z,17.38
2023-03-13T09:16:34.333Z,12.77
2023-03-13T09:19:02.986Z,18.83
2023-03-13T09:21:33.349Z,19.85
2023-03-13T09:24:02.426Z,16.15
2023-03-13T09:26:31.264Z,19.42
2023-03-13T09:29:00.098Z,11.65
2023-03-13T09:31:34.014Z,18.48
2023-03-13T09:34:02.443Z,18.88
2023-03-13T09:36:31.012Z,17.90
2023-03-13T09:39:00.609Z,21.98
2023-03-13T09:41:44.190Z,15.00
2023-03-13T09:44:45.747Z,26.05
2023-03-13T09:47:33.656Z,21.73
2023-03-13T09:50:20.675Z,16.80
2023-03-13T09:52:51.817Z,10.90
2023-03-13T09:55:39.130Z,20.58
2023-03-13T09:58:26.360Z,42.47
2023-03-13T10:01:05.803Z,29.15
2023-03-13T10:03:58.152Z,36.50
2023-03-13T10:06:28.556Z,54.78
2023-03-13T10:09:01.002Z,19.95
2023-03-13T10:11:45.275Z,30.63
2023-03-13T10:14:54.655Z,22.60
2023-03-13T10:17:40.163Z,15.38
2023-03-13T10:20:28.077Z,21.55
2023-03-13T10:23:11.161Z,49.03
2023-03-13T10:25:40.796Z,35.40
2023-03-13T10:42:36.627Z,14.57
2023-03-13T10:45:06.450Z,23.10
2023-03-13T10:47:36.501Z,28.58
2023-03-13T10:50:05.610Z,32.05
2023-03-13T10:52:46.201Z,18.50
2023-03-13T10:55:19.255Z,18.17
2023-03-13T10:58:01.269Z,14.15
2023-03-13T11:00:34.872Z,27.95
2023-03-13T11:03:08.216Z,19.10
2023-03-13T11:05:42.279Z,33.38
2023-03-13T11:08:28.466Z,36.03
2023-03-13T11:11:02.582Z,30.33
2023-03-13T11:13:37.930Z,36.63
2023-03-13T11:16:23.206Z,13.48
2023-03-13T11:19:14.113Z,19.55
2023-03-13T11:22:06.802Z,21.73
2023-03-13T11:24:46.841Z,14.63
2023-03-13T11:27:40.923Z,158.30
2023-03-13T11:30:32.610Z,28.77
2023-03-13T11:33:05.130Z,17.33
2023-03-13T11:35:56.243Z,31.60
2023-03-13T11:38:41.341Z,59.17
2023-03-13T11:41:21.905Z,20.75
2023-03-13T11:44:17.583Z,22.45
2023-03-13T11:47:27.596Z,14.88
2023-03-13T11:50:03.056Z,22.98
2023-03-13T11:52:49.155Z,52.75
2023-03-13T11:55:30.171Z,305.80
2023-03-13T11:58:32.119Z,27.83
2023-03-13T12:01:15.321Z,20.10
2023-03-13T12:04:01.841Z,26.90
2023-03-13T12:07:15.547Z,17.20
2023-03-13T12:09:50.418Z,19.20
2023-03-13T12:12:32.067Z,23.60
2023-03-13T12:15:04.477Z,15.70
2023-03-13T12:17:42.698Z,18.30
2023-03-13T12:20:45.647Z,21.67
2023-03-13T12:23:16.837Z,21.52
2023-03-13T12:25:58.295Z,14.55
2023-03-13T12:28:28.836Z,23.00
2023-03-13T12:31:24.831Z,26.83
2023-03-13T12:34:37.378Z,22.52
2023-03-13T12:37:19.018Z,27.35
2023-03-13T12:39:57.034Z,19.02
2023-03-13T12:42:43.862Z,22.38
2023-03-13T12:45:21.012Z,25.13
2023-03-13T12:48:18.242Z,29.15
2023-03-13T12:51:01.547Z,27.55
2023-03-13T12:53:57.811Z,14.20
2023-03-13T12:56:49.152Z,19.65
2023-03-13T12:59:33.055Z,17.63
2023-03-13T13:02:01.890Z,20.95
2023-03-13T13:04:45.185Z,15.80
2023-03-13T13:07:26.529Z,28.42
2023-03-13T13:10:13.169Z,16.60
2023-03-13T13:12:46.615Z,23.63
2023-03-13T13:15:46.804Z,26.48
2023-03-13T13:18:28.877Z,14.65
2023-03-13T13:21:06.016Z,14.57
2023-03-13T13:23:37.212Z,24.05
2023-03-13T13:26:27.061Z,27.67
2023-03-13T13:28:56.805Z,20.85
2023-03-13T13:31:49.846Z,17.02
2023-03-13T13:34:38.908Z,13.75
2023-03-13T13:37:13.134Z,15.00
2023-03-13T13:39:49.734Z,22.80
2023-03-13T13:42:33.008Z,24.38
2023-03-13T13:45:21.030Z,16.35
2023-03-13T13:47:51.038Z,39.50
2023-03-13T13:50:22.173Z,21.27
2023-03-13T13:52:51.489Z,11.90
2023-03-13T13:55:41.008Z,20.67
2023-03-13T13:58:24.996Z,18.02
2023-03-13T14:01:04.838Z,17.17
2023-03-13T14:03:34.218Z,14.57
2023-03-13T14:06:16.479Z,18.55
2023-03-13T14:08:46.441Z,22.42
2023-03-13T14:11:35.982Z,19.20
2023-03-13T14:14:22.863Z,19.30
2023-03-13T14:16:56.575Z,12.27
2023-03-13T14:19:37.311Z,12.13
2023-03-13T14:22:10.596Z,26.08
2023-03-13T14:24:42.033Z,13.55
2023-03-13T14:27:20.623Z,13.23
2023-03-13T14:30:08.003Z,15.65
2023-03-13T14:32:36.896Z,20.40
2023-03-13T14:35:09.803Z,18.02
2023-03-13T14:37:49.169Z,19.83
2023-03-13T14:40:25.322Z,17.95
2023-03-13T14:43:04.291Z,19.80
2023-03-13T14:45:34.801Z,19.15
2023-03-13T14:48:22.356Z,86.50
2023-03-13T14:51:14.190Z,53.65
2023-03-13T14:53:58.170Z,13.13
2023-03-13T14:56:38.966Z,15.32
2023-03-13T14:59:08.509Z,53.63
2023-03-13T15:01:36.886Z,22.42
2023-03-13T15:04:05.198Z,32.47
2023-03-13T15:06:33.556Z,20.27
2023-03-13T15:09:34.209Z,32.42
2023-03-13T15:12:02.684Z,13.90
2023-03-13T15:14:51.250Z,23.30
2023-03-13T15:17:24.034Z,16.42
2023-03-13T15:19:58.250Z,17.90
2023-03-13T15:22:35.144Z,26.17
2023-03-13T15:25:06.395Z,17.25
2023-03-13T15:30:03.626Z,24.80
2023-03-13T15:32:37.429Z,45.60
2023-03-13T15:35:25.580Z,33.10
2023-03-13T15:37:53.845Z,43.28
2023-03-13T15:40:22.917Z,14.82
2023-03-13T15:42:52.356Z,37.25
2023-03-13T15:45:21.295Z,26.25
2023-03-13T15:47:49.795Z,25.58
2023-03-13T15:50:21.336Z,21.55
2023-03-13T15:52:51.529Z,19.15
2023-03-13T15:55:19.731Z,28.50
2023-03-13T15:57:50.887Z,20.48
2023-03-13T16:00:25.298Z,28.48
2023-03-13T16:02:53.878Z,15.48
2023-03-13T16:05:22.135Z,21.63
2023-03-13T16:07:50.281Z,22.25
2023-03-13T16:10:24.633Z,24.00
2023-03-13T16:12:54.684Z,21.50
2023-03-13T16:15:23.328Z,16.92
2023-03-13T16:17:51.668Z,36.28
2023-03-13T16:20:23.320Z,19.38
2023-03-13T16:22:53.557Z,37.80
2023-03-13T16:25:23.118Z,36.78
2023-03-13T16:27:51.909Z,18.33
2023-03-13T16:30:23.379Z,31.83
2023-03-13T16:32:52.054Z,52.78
2023-03-13T16:35:21.757Z,37.35
2023-03-13T16:37:50.186Z,25.38
2023-03-13T16:40:22.508Z,34.28
2023-03-13T16:42:51.045Z,33.63
2023-03-13T16:56:54.612Z,19.73
2023-03-13T16:59:22.810Z,17.65
2023-03-13T17:01:51.083Z,28.83
2023-03-13T17:04:19.557Z,33.17
2023-03-13T17:06:47.809Z,23.98
2023-03-13T17:13:13.434Z,13.35
2023-03-13T17:15:41.596Z,30.13
2023-03-13T17:18:10.947Z,30.30
2023-03-13T17:20:39.057Z,22.42
2023-03-13T17:23:38.382Z,22.65
2023-03-13T17:26:14.176Z,29.60
2023-03-13T17:28:42.876Z,21.65
2023-03-13T17:35:18.015Z,34.80
2023-03-13T17:37:47.636Z,20.95
2023-03-13T17:40:18.132Z,14.80
2023-03-13T17:42:47.111Z,15.80
2023-03-13T17:45:15.356Z,42.88
2023-03-13T17:47:43.639Z,24.42
2023-03-13T17:50:18.482Z,23.33
2023-03-13T17:52:46.959Z,33.60
2023-03-13T17:55:15.272Z,41.22
2023-03-13T17:57:43.978Z,28.63
2023-03-13T18:00:24.866Z,18.85
2023-03-13T18:02:53.333Z,19.95
2023-03-13T18:05:22.143Z,25.10
2023-03-13T18:07:51.117Z,31.27
2023-03-13T18:10:22.441Z,30.58
2023-03-13T18:12:51.257Z,23.85
2023-03-13T18:15:24.513Z,17.92
2023-03-13T18:17:53.234Z,32.95
2023-03-13T18:20:27.632Z,24.40
2023-03-13T18:22:55.915Z,31.75
2023-03-13T18:25:24.092Z,30.48
2023-03-13T18:27:52.403Z,33.03
2023-03-13T18:30:23.164Z,28.17
2023-03-13T18:32:51.557Z,28.70
2023-03-13T18:35:19.924Z,23.40
2023-03-13T18:37:48.939Z,33.53
2023-03-13T18:40:18.805Z,39.53
2023-03-13T18:42:47.496Z,33.50
2023-03-13T18:45:23.724Z,29.77
2023-03-13T18:47:52.221Z,40.88
2023-03-13T18:50:31.649Z,40.42
2023-03-13T18:53:00.872Z,30.85
2023-03-13T18:55:31.102Z,41.10
2023-03-13T18:57:59.427Z,49.38
2023-03-13T19:00:30.397Z,38.75
2023-03-13T19:02:58.818Z,52.30
2023-03-13T19:05:26.923Z,48.67
2023-03-13T19:07:55.321Z,70.78
2023-03-13T19:10:31.356Z,37.92
2023-03-13T19:12:59.772Z,31.52
2023-03-13T19:15:30.913Z,40.00
2023-03-13T19:18:03.507Z,45.42
2023-03-13T19:20:32.483Z,48.45
2023-03-13T19:23:00.754Z,38.67
2023-03-13T19:25:29.626Z,33.85
2023-03-13T19:27:57.797Z,51.45
2023-03-13T19:30:26.809Z,50.70
2023-03-13T19:32:55.331Z,36.33
2023-03-13T19:35:23.517Z,30.08
2023-03-13T19:37:51.869Z,22.38
2023-03-13T19:40:27.842Z,30.58
2023-03-13T19:42:56.261Z,39.35
2023-03-13T19:45:24.422Z,46.08
2023-03-13T19:47:52.649Z,50.45
2023-03-13T19:50:24.148Z,46.28
2023-03-13T19:52:52.423Z,37.55
2023-03-13T19:55:20.754Z,32.70
2023-03-13T19:57:49.011Z,37.58
2023-03-13T20:00:27.257Z,33.08
2023-03-13T20:02:55.406Z,39.85
2023-03-13T20:05:24.640Z,41.55
2023-03-13T20:07:53.076Z,36.03
2023-03-13T20:10:22.337Z,47.90
2023-03-13T20:12:50.610Z,44.78
2023-03-13T20:15:19.007Z,45.53
2023-03-13T20:17:47.413Z,29.17
2023-03-13T20:20:16.041Z,26.60
2023-03-13T20:22:44.391Z,29.40
2023-03-13T20:25:12.675Z,29.27
2023-03-13T20:27:40.869Z,25.00
2023-03-13T20:30:09.867Z,25.15
2023-03-13T20:32:49.115Z,18.98
2023-03-13T20:35:25.444Z,33.15
2023-03-13T20:37:53.730Z,27.42
2023-03-13T20:40:22.082Z,28.98
2023-03-13T20:42:50.597Z,29.08
2023-03-13T20:45:18.927Z,22.10
2023-03-13T20:47:47.181Z,19.92
2023-03-13T20:50:16.298Z,21.67
2023-03-13T20:52:46.006Z,20.90
2023-03-13T20:55:14.276Z,38.30
2023-03-13T20:57:42.639Z,37.92
2023-03-13T21:00:11.558Z,43.63
2023-03-13T21:02:39.876Z,36.15
2023-03-13T21:05:08.693Z,42.63
2023-03-13T21:07:36.955Z,56.33
2023-03-13T21:10:05.364Z,54.35
2023-03-13T21:12:33.867Z,41.80
2023-03-13T21:15:05.030Z,44.97
2023-03-13T21:17:34.112Z,52.17
2023-03-13T21:20:02.482Z,40.53
2023-03-13T21:22:30.838Z,33.47
2023-03-13T21:24:59.214Z,23.45
2023-03-13T21:27:27.518Z,29.75
2023-03-13T21:29:55.817Z,43.92
2023-03-13T21:32:24.292Z,29.60
2023-03-13T21:34:52.659Z,32.65
2023-03-13T21:37:21.096Z,36.78
2023-03-13T21:39:53.736Z,40.70
2023-03-13T21:42:22.088Z,52.22
2023-03-13T21:44:50.484Z,54.92
2023-03-13T21:47:18.875Z,49.33
2023-03-13T21:49:47.221Z,47.55
2023-03-13T21:52:15.451Z,49.08
2023-03-13T21:54:43.682Z,27.27
2023-03-13T21:57:12.394Z,31.38
2023-03-13T21:59:41.726Z,43.67
2023-03-13T22:02:14.008Z,38.33
2023-03-13T22:04:42.335Z,43.53
2023-03-13T22:07:10.872Z,37.97
2023-03-13T22:09:39.181Z,37.95
2023-03-13T22:12:07.449Z,29.30
2023-03-13T22:14:36.044Z,49.08
2023-03-13T22:17:04.297Z,34.97
2023-03-13T22:19:32.544Z,40.15
2023-03-13T22:22:02.169Z,33.90
2023-03-13T22:24:30.381Z,36.67
2023-03-13T22:26:58.730Z,33.42
2023-03-13T22:29:27.036Z,32.42
2023-03-13T22:31:56.141Z,35.92
2023-03-13T22:34:24.482Z,42.58
2023-03-13T22:36:52.816Z,50.30
2023-03-13T22:39:21.041Z,37.60
2023-03-13T22:41:49.480Z,40.72
2023-03-13T22:44:17.908Z,43.10
2023-03-13T22:46:46.392Z,45.17
2023-03-13T22:49:14.519Z,41.17
2023-03-13T22:51:42.791Z,38.03
2023-03-13T22:54:11.139Z,26.08
2023-03-13T22:56:39.615Z,29.52
2023-03-13T22:59:07.936Z,23.92
2023-03-13T23:01:36.445Z,29.83
2023-03-13T23:04:04.651Z,29.15
2023-03-13T23:06:33.047Z,34.63
2023-03-13T23:09:01.424Z,38.55
2023-03-13T23:11:29.763Z,41.72
2023-03-13T23:13:57.881Z,38.25
2023-03-13T23:16:26.507Z,40.40
2023-03-13T23:18:54.627Z,32.00
2023-03-13T23:21:22.984Z,21.85
2023-03-13T23:23:54.908Z,24.13
2023-03-13T23:26:23.460Z,48.80
2023-03-13T23:28:51.755Z,50.28
2023-03-13T23:31:21.894Z,53.95
2023-03-13T23:33:50.563Z,46.20
2023-03-13T23:36:19.843Z,28.27
2023-03-13T23:38:52.875Z,18.73
2023-03-13T23:41:22.111Z,24.30
2023-03-13T23:43:50.305Z,23.02
2023-03-13T23:46:24.808Z,19.50
2023-03-13T23:48:55.213Z,18.27
2023-03-13T23:51:23.861Z,18.52
2023-03-13T23:53:52.690Z,22.30
2023-03-13T23:56:21.937Z,22.52
2023-03-13T23:58:50.393Z,21.52
